sensor_id;sensor_type;location;lat;lon;timestamp;P1;durP1;ratioP1;P2;durP2;ratioP2
32323;SDS011;25666;44.350;9.222;2022-11-04T00:02:00;6.57;;;2.25;;
32323;SDS011;25666;44.350;9.222;2022-11-04T00:04:27;8.68;;;2.95;;
32323;SDS011;25666;44.350;9.222;2022-11-04T00:06:53;4.35;;;2.30;;
32323;SDS011;25666;44.350;9.222;2022-11-04T00:09:21;20.95;;;3.47;;
32323;SDS011;25666;44.350;9.222;2022-11-04T00:11:51;5.72;;;2.42;;
32323;SDS011;25666;44.350;9.222;2022-11-04T00:14:35;9.18;;;2.72;;
32323;SDS011;25666;44.350;9.222;2022-11-04T00:17:01;6.57;;;2.65;;
32323;SDS011;25666;44.350;9.222;2022-11-04T00:19:46;15.23;;;3.22;;
32323;SDS011;25666;44.350;9.222;2022-11-04T00:22:31;4.18;;;2.08;;
32323;SDS011;25666;44.350;9.222;2022-11-04T00:25:16;4.22;;;2.40;;
32323;SDS011;25666;44.350;9.222;2022-11-04T00:28:01;10.00;;;2.10;;
32323;SDS011;25666;44.350;9.222;2022-11-04T00:30:46;9.55;;;2.70;;
32323;SDS011;25666;44.350;9.222;2022-11-04T00:33:12;21.00;;;4.55;;
32323;SDS011;25666;44.350;9.222;2022-11-04T00:35:50;22.17;;;5.70;;
32323;SDS011;25666;44.350;9.222;2022-11-04T00:38:17;33.85;;;5.93;;
32323;SDS011;25666;44.350;9.222;2022-11-04T00:40:43;20.88;;;5.28;;
32323;SDS011;25666;44.350;9.222;2022-11-04T00:43:09;15.90;;;4.95;;
32323;SDS011;25666;44.350;9.222;2022-11-04T00:45:35;28.80;;;4.50;;
32323;SDS011;25666;44.350;9.222;2022-11-04T00:48:00;16.52;;;4.20;;
32323;SDS011;25666;44.350;9.222;2022-11-04T00:50:26;20.23;;;3.78;;
32323;SDS011;25666;44.350;9.222;2022-11-04T00:52:56;9.30;;;3.70;;
32323;SDS011;25666;44.350;9.222;2022-11-04T00:55:23;13.85;;;4.13;;
32323;SDS011;25666;44.350;9.222;2022-11-04T00:57:48;11.02;;;3.17;;
32323;SDS011;25666;44.350;9.222;2022-11-04T01:00:14;16.95;;;2.90;;
32323;SDS011;25666;44.350;9.222;2022-11-04T01:02:40;10.93;;;2.60;;
32323;SDS011;25666;44.350;9.222;2022-11-04T01:05:05;11.65;;;3.33;;
32323;SDS011;25666;44.350;9.222;2022-11-04T01:07:31;10.48;;;3.50;;
32323;SDS011;25666;44.350;9.222;2022-11-04T01:09:57;11.02;;;2.78;;
32323;SDS011;25666;44.350;9.222;2022-11-04T01:12:22;10.05;;;3.03;;
32323;SDS011;25666;44.350;9.222;2022-11-04T01:14:48;13.05;;;3.80;;
32323;SDS011;25666;44.350;9.222;2022-11-04T01:17:14;19.98;;;3.35;;
32323;SDS011;25666;44.350;9.222;2022-11-04T01:19:39;12.38;;;3.85;;
32323;SDS011;25666;44.350;9.222;2022-11-04T01:22:05;13.30;;;3.20;;
32323;SDS011;25666;44.350;9.222;2022-11-04T01:24:30;13.80;;;3.40;;
32323;SDS011;25666;44.350;9.222;2022-11-04T01:26:56;18.60;;;5.63;;
32323;SDS011;25666;44.350;9.222;2022-11-04T01:29:21;15.02;;;3.15;;
32323;SDS011;25666;44.350;9.222;2022-11-04T01:31:47;8.20;;;3.42;;
32323;SDS011;25666;44.350;9.222;2022-11-04T01:34:12;16.48;;;3.25;;
32323;SDS011;25666;44.350;9.222;2022-11-04T01:36:38;9.55;;;3.55;;
32323;SDS011;25666;44.350;9.222;2022-11-04T01:39:03;19.10;;;3.05;;
32323;SDS011;25666;44.350;9.222;2022-11-04T01:41:31;10.23;;;2.67;;
32323;SDS011;25666;44.350;9.222;2022-11-04T01:44:01;11.02;;;3.15;;
32323;SDS011;25666;44.350;9.222;2022-11-04T01:46:45;6.28;;;2.60;;
32323;SDS011;25666;44.350;9.222;2022-11-04T01:49:22;7.95;;;2.45;;
32323;SDS011;25666;44.350;9.222;2022-11-04T01:52:09;9.70;;;3.03;;
32323;SDS011;25666;44.350;9.222;2022-11-04T01:54:40;12.20;;;2.72;;
32323;SDS011;25666;44.350;9.222;2022-11-04T01:57:09;15.48;;;2.63;;
32323;SDS011;25666;44.350;9.222;2022-11-04T01:59:38;12.02;;;2.10;;
32323;SDS011;25666;44.350;9.222;2022-11-04T02:02:05;4.15;;;1.73;;
32323;SDS011;25666;44.350;9.222;2022-11-04T02:04:31;5.00;;;2.05;;
32323;SDS011;25666;44.350;9.222;2022-11-04T02:07:01;4.82;;;1.73;;
32323;SDS011;25666;44.350;9.222;2022-11-04T02:09:31;7.82;;;2.10;;
32323;SDS011;25666;44.350;9.222;2022-11-04T02:11:59;2.95;;;1.75;;
32323;SDS011;25666;44.350;9.222;2022-11-04T02:14:45;3.15;;;1.58;;
32323;SDS011;25666;44.350;9.222;2022-11-04T02:19:53;5.88;;;1.67;;
32323;SDS011;25666;44.350;9.222;2022-11-04T02:25:42;3.10;;;1.60;;
32323;SDS011;25666;44.350;9.222;2022-11-04T02:28:50;2.42;;;1.30;;
32323;SDS011;25666;44.350;9.222;2022-11-04T02:31:56;4.40;;;1.30;;
32323;SDS011;25666;44.350;9.222;2022-11-04T02:37:24;7.40;;;1.77;;
32323;SDS011;25666;44.350;9.222;2022-11-04T02:40:07;2.60;;;1.13;;
32323;SDS011;25666;44.350;9.222;2022-11-04T02:42:49;2.67;;;1.77;;
32323;SDS011;25666;44.350;9.222;2022-11-04T02:45:25;4.22;;;1.40;;
32323;SDS011;25666;44.350;9.222;2022-11-04T02:48:19;4.05;;;1.45;;
32323;SDS011;25666;44.350;9.222;2022-11-04T02:50:55;1.85;;;1.23;;
32323;SDS011;25666;44.350;9.222;2022-11-04T02:53:32;4.72;;;1.40;;
32323;SDS011;25666;44.350;9.222;2022-11-04T02:56:05;3.78;;;1.52;;
32323;SDS011;25666;44.350;9.222;2022-11-04T02:58:34;5.25;;;2.10;;
32323;SDS011;25666;44.350;9.222;2022-11-04T03:01:05;9.25;;;1.20;;
32323;SDS011;25666;44.350;9.222;2022-11-04T03:03:34;2.83;;;1.23;;
32323;SDS011;25666;44.350;9.222;2022-11-04T03:06:06;2.60;;;1.85;;
32323;SDS011;25666;44.350;9.222;2022-11-04T03:08:35;6.65;;;1.40;;
32323;SDS011;25666;44.350;9.222;2022-11-04T03:11:07;3.17;;;1.60;;
32323;SDS011;25666;44.350;9.222;2022-11-04T03:13:38;6.50;;;1.55;;
32323;SDS011;25666;44.350;9.222;2022-11-04T03:16:09;3.60;;;1.77;;
32323;SDS011;25666;44.350;9.222;2022-11-04T03:18:51;8.15;;;1.60;;
32323;SDS011;25666;44.350;9.222;2022-11-04T03:21:24;5.82;;;1.83;;
32323;SDS011;25666;44.350;9.222;2022-11-04T03:23:52;3.03;;;1.55;;
32323;SDS011;25666;44.350;9.222;2022-11-04T03:26:27;3.55;;;1.45;;
32323;SDS011;25666;44.350;9.222;2022-11-04T03:31:46;8.55;;;1.90;;
32323;SDS011;25666;44.350;9.222;2022-11-04T03:34:49;7.95;;;1.67;;
32323;SDS011;25666;44.350;9.222;2022-11-04T03:37:16;9.85;;;2.22;;
32323;SDS011;25666;44.350;9.222;2022-11-04T03:39:42;2.53;;;1.50;;
32323;SDS011;25666;44.350;9.222;2022-11-04T03:42:08;5.32;;;1.88;;
32323;SDS011;25666;44.350;9.222;2022-11-04T03:44:51;3.35;;;1.75;;
32323;SDS011;25666;44.350;9.222;2022-11-04T03:47:19;8.32;;;1.85;;
32323;SDS011;25666;44.350;9.222;2022-11-04T03:49:48;4.63;;;2.00;;
32323;SDS011;25666;44.350;9.222;2022-11-04T03:52:16;5.30;;;1.90;;
32323;SDS011;25666;44.350;9.222;2022-11-04T03:54:43;3.25;;;1.90;;
32323;SDS011;25666;44.350;9.222;2022-11-04T04:00:02;6.50;;;1.90;;
32323;SDS011;25666;44.350;9.222;2022-11-04T04:02:48;7.72;;;3.15;;
32323;SDS011;25666;44.350;9.222;2022-11-04T04:05:31;1.92;;;1.42;;
32323;SDS011;25666;44.350;9.222;2022-11-04T04:08:25;4.60;;;1.88;;
32323;SDS011;25666;44.350;9.222;2022-11-04T04:11:15;3.97;;;1.50;;
32323;SDS011;25666;44.350;9.222;2022-11-04T04:13:56;6.50;;;1.88;;
32323;SDS011;25666;44.350;9.222;2022-11-04T04:16:33;3.05;;;1.65;;
32323;SDS011;25666;44.350;9.222;2022-11-04T04:19:05;5.35;;;1.92;;
32323;SDS011;25666;44.350;9.222;2022-11-04T04:21:37;6.05;;;1.80;;
32323;SDS011;25666;44.350;9.222;2022-11-04T04:24:17;2.15;;;1.63;;
32323;SDS011;25666;44.350;9.222;2022-11-04T04:27:05;6.35;;;1.73;;
32323;SDS011;25666;44.350;9.222;2022-11-04T04:29:50;6.15;;;2.20;;
32323;SDS011;25666;44.350;9.222;2022-11-04T04:32:17;3.80;;;1.95;;
32323;SDS011;25666;44.350;9.222;2022-11-04T04:34:46;2.85;;;1.50;;
32323;SDS011;25666;44.350;9.222;2022-11-04T04:39:57;7.85;;;2.33;;
32323;SDS011;25666;44.350;9.222;2022-11-04T04:42:42;3.33;;;2.00;;
32323;SDS011;25666;44.350;9.222;2022-11-04T04:45:36;6.90;;;3.17;;
32323;SDS011;25666;44.350;9.222;2022-11-04T04:48:06;3.10;;;1.80;;
32323;SDS011;25666;44.350;9.222;2022-11-04T04:50:35;3.92;;;2.10;;
32323;SDS011;25666;44.350;9.222;2022-11-04T04:53:03;8.13;;;2.28;;
32323;SDS011;25666;44.350;9.222;2022-11-04T04:55:29;7.03;;;2.50;;
32323;SDS011;25666;44.350;9.222;2022-11-04T04:57:56;7.78;;;2.50;;
32323;SDS011;25666;44.350;9.222;2022-11-04T05:00:22;7.63;;;2.83;;
32323;SDS011;25666;44.350;9.222;2022-11-04T05:02:48;10.80;;;2.40;;
32323;SDS011;25666;44.350;9.222;2022-11-04T05:05:14;4.00;;;2.08;;
32323;SDS011;25666;44.350;9.222;2022-11-04T05:07:41;8.48;;;1.85;;
32323;SDS011;25666;44.350;9.222;2022-11-04T05:10:07;3.67;;;1.73;;
32323;SDS011;25666;44.350;9.222;2022-11-04T05:12:35;2.83;;;1.60;;
32323;SDS011;25666;44.350;9.222;2022-11-04T05:15:20;0.80;;;0.60;;
32323;SDS011;25666;44.350;9.222;2022-11-04T05:17:45;1.52;;;0.50;;
32323;SDS011;25666;44.350;9.222;2022-11-04T05:20:11;4.95;;;0.68;;
32323;SDS011;25666;44.350;9.222;2022-11-04T05:22:36;3.08;;;0.88;;
32323;SDS011;25666;44.350;9.222;2022-11-04T05:25:02;1.80;;;0.50;;
32323;SDS011;25666;44.350;9.222;2022-11-04T05:27:28;0.50;;;0.50;;
32323;SDS011;25666;44.350;9.222;2022-11-04T05:29:53;1.60;;;0.63;;
32323;SDS011;25666;44.350;9.222;2022-11-04T05:32:19;3.65;;;0.70;;
32323;SDS011;25666;44.350;9.222;2022-11-04T05:34:44;0.60;;;0.60;;
32323;SDS011;25666;44.350;9.222;2022-11-04T05:37:12;2.22;;;0.75;;
32323;SDS011;25666;44.350;9.222;2022-11-04T05:39:37;0.50;;;0.50;;
32323;SDS011;25666;44.350;9.222;2022-11-04T05:42:03;0.65;;;0.60;;
32323;SDS011;25666;44.350;9.222;2022-11-04T05:44:28;0.30;;;0.30;;
32323;SDS011;25666;44.350;9.222;2022-11-04T05:46:53;0.68;;;0.55;;
32323;SDS011;25666;44.350;9.222;2022-11-04T05:49:19;5.68;;;0.90;;
32323;SDS011;25666;44.350;9.222;2022-11-04T05:51:45;1.17;;;0.60;;
32323;SDS011;25666;44.350;9.222;2022-11-04T05:54:10;1.38;;;0.75;;
32323;SDS011;25666;44.350;9.222;2022-11-04T05:56:36;0.60;;;0.60;;
32323;SDS011;25666;44.350;9.222;2022-11-04T05:59:02;0.90;;;0.60;;
32323;SDS011;25666;44.350;9.222;2022-11-04T06:01:29;0.80;;;0.60;;
32323;SDS011;25666;44.350;9.222;2022-11-04T06:03:55;1.80;;;0.63;;
32323;SDS011;25666;44.350;9.222;2022-11-04T06:06:23;5.15;;;0.80;;
32323;SDS011;25666;44.350;9.222;2022-11-04T06:08:51;1.52;;;0.70;;
32323;SDS011;25666;44.350;9.222;2022-11-04T06:11:17;1.38;;;0.80;;
32323;SDS011;25666;44.350;9.222;2022-11-04T06:13:43;3.80;;;1.00;;
32323;SDS011;25666;44.350;9.222;2022-11-04T06:16:08;3.88;;;0.90;;
32323;SDS011;25666;44.350;9.222;2022-11-04T06:18:34;1.25;;;1.00;;
32323;SDS011;25666;44.350;9.222;2022-11-04T06:23:47;2.25;;;0.80;;
32323;SDS011;25666;44.350;9.222;2022-11-04T06:26:13;1.13;;;1.00;;
32323;SDS011;25666;44.350;9.222;2022-11-04T06:28:39;3.80;;;0.80;;
32323;SDS011;25666;44.350;9.222;2022-11-04T06:31:05;1.63;;;0.98;;
32323;SDS011;25666;44.350;9.222;2022-11-04T06:33:32;4.47;;;1.65;;
32323;SDS011;25666;44.350;9.222;2022-11-04T06:35:58;5.10;;;1.15;;
32323;SDS011;25666;44.350;9.222;2022-11-04T06:38:25;2.15;;;1.00;;
32323;SDS011;25666;44.350;9.222;2022-11-04T06:40:53;3.13;;;1.50;;
32323;SDS011;25666;44.350;9.222;2022-11-04T06:43:18;3.10;;;1.38;;
32323;SDS011;25666;44.350;9.222;2022-11-04T06:45:43;1.63;;;1.10;;
32323;SDS011;25666;44.350;9.222;2022-11-04T06:48:16;5.93;;;1.60;;
32323;SDS011;25666;44.350;9.222;2022-11-04T06:50:42;2.30;;;0.70;;
32323;SDS011;25666;44.350;9.222;2022-11-04T06:53:07;0.80;;;0.80;;
32323;SDS011;25666;44.350;9.222;2022-11-04T06:55:33;0.93;;;0.70;;
32323;SDS011;25666;44.350;9.222;2022-11-04T06:57:58;4.72;;;0.80;;
32323;SDS011;25666;44.350;9.222;2022-11-04T07:00:24;2.88;;;0.60;;
32323;SDS011;25666;44.350;9.222;2022-11-04T07:02:49;1.73;;;0.57;;
32323;SDS011;25666;44.350;9.222;2022-11-04T07:05:15;1.40;;;0.77;;
32323;SDS011;25666;44.350;9.222;2022-11-04T07:07:41;0.88;;;0.77;;
32323;SDS011;25666;44.350;9.222;2022-11-04T07:10:07;8.07;;;1.17;;
32323;SDS011;25666;44.350;9.222;2022-11-04T07:12:33;6.85;;;1.00;;
32323;SDS011;25666;44.350;9.222;2022-11-04T07:14:58;0.95;;;0.77;;
32323;SDS011;25666;44.350;9.222;2022-11-04T07:17:24;0.82;;;0.70;;
32323;SDS011;25666;44.350;9.222;2022-11-04T07:19:49;4.35;;;0.70;;
32323;SDS011;25666;44.350;9.222;2022-11-04T07:22:15;0.85;;;0.52;;
32323;SDS011;25666;44.350;9.222;2022-11-04T07:24:40;4.03;;;0.80;;
32323;SDS011;25666;44.350;9.222;2022-11-04T07:27:05;0.60;;;0.50;;
32323;SDS011;25666;44.350;9.222;2022-11-04T07:29:32;5.72;;;1.60;;
32323;SDS011;25666;44.350;9.222;2022-11-04T07:31:57;2.00;;;0.70;;
32323;SDS011;25666;44.350;9.222;2022-11-04T07:34:23;1.05;;;0.70;;
32323;SDS011;25666;44.350;9.222;2022-11-04T07:36:48;1.58;;;0.70;;
32323;SDS011;25666;44.350;9.222;2022-11-04T07:39:14;0.55;;;0.52;;
32323;SDS011;25666;44.350;9.222;2022-11-04T07:41:40;6.20;;;1.10;;
32323;SDS011;25666;44.350;9.222;2022-11-04T07:44:05;5.55;;;1.00;;
32323;SDS011;25666;44.350;9.222;2022-11-04T07:46:31;3.10;;;0.88;;
32323;SDS011;25666;44.350;9.222;2022-11-04T07:48:57;7.63;;;0.80;;
32323;SDS011;25666;44.350;9.222;2022-11-04T07:51:23;2.50;;;0.50;;
32323;SDS011;25666;44.350;9.222;2022-11-04T07:53:50;1.58;;;0.85;;
32323;SDS011;25666;44.350;9.222;2022-11-04T07:56:16;2.90;;;0.82;;
32323;SDS011;25666;44.350;9.222;2022-11-04T07:58:43;5.63;;;0.82;;
32323;SDS011;25666;44.350;9.222;2022-11-04T08:01:10;2.65;;;1.00;;
32323;SDS011;25666;44.350;9.222;2022-11-04T08:03:40;2.58;;;1.67;;
32323;SDS011;25666;44.350;9.222;2022-11-04T08:06:07;3.15;;;1.08;;
32323;SDS011;25666;44.350;9.222;2022-11-04T08:08:34;2.85;;;1.48;;
32323;SDS011;25666;44.350;9.222;2022-11-04T08:11:02;0.70;;;0.70;;
32323;SDS011;25666;44.350;9.222;2022-11-04T08:13:31;1.30;;;0.60;;
32323;SDS011;25666;44.350;9.222;2022-11-04T08:16:09;1.40;;;0.93;;
32323;SDS011;25666;44.350;9.222;2022-11-04T08:18:37;2.65;;;0.50;;
32323;SDS011;25666;44.350;9.222;2022-11-04T08:21:04;1.05;;;0.57;;
32323;SDS011;25666;44.350;9.222;2022-11-04T08:23:32;1.67;;;0.60;;
32323;SDS011;25666;44.350;9.222;2022-11-04T08:25:58;1.52;;;0.57;;
32323;SDS011;25666;44.350;9.222;2022-11-04T08:28:24;2.22;;;0.80;;
32323;SDS011;25666;44.350;9.222;2022-11-04T08:33:22;1.80;;;1.27;;
32323;SDS011;25666;44.350;9.222;2022-11-04T08:35:48;2.40;;;1.30;;
32323;SDS011;25666;44.350;9.222;2022-11-04T08:38:14;1.35;;;1.00;;
32323;SDS011;25666;44.350;9.222;2022-11-04T08:40:40;2.42;;;1.08;;
32323;SDS011;25666;44.350;9.222;2022-11-04T08:43:06;7.45;;;1.10;;
32323;SDS011;25666;44.350;9.222;2022-11-04T08:45:32;1.17;;;0.80;;
32323;SDS011;25666;44.350;9.222;2022-11-04T08:47:58;2.45;;;1.13;;
32323;SDS011;25666;44.350;9.222;2022-11-04T08:50:24;1.58;;;0.70;;
32323;SDS011;25666;44.350;9.222;2022-11-04T08:52:52;0.60;;;0.60;;
32323;SDS011;25666;44.350;9.222;2022-11-04T08:55:18;1.80;;;1.00;;
32323;SDS011;25666;44.350;9.222;2022-11-04T08:57:43;1.73;;;0.80;;
32323;SDS011;25666;44.350;9.222;2022-11-04T09:00:09;7.03;;;1.27;;
32323;SDS011;25666;44.350;9.222;2022-11-04T09:02:35;1.83;;;0.60;;
32323;SDS011;25666;44.350;9.222;2022-11-04T09:05:01;2.63;;;0.93;;
32323;SDS011;25666;44.350;9.222;2022-11-04T09:07:27;2.25;;;0.70;;
32323;SDS011;25666;44.350;9.222;2022-11-04T09:09:53;2.22;;;0.77;;
32323;SDS011;25666;44.350;9.222;2022-11-04T09:12:19;2.20;;;0.75;;
32323;SDS011;25666;44.350;9.222;2022-11-04T09:14:44;9.90;;;1.10;;
32323;SDS011;25666;44.350;9.222;2022-11-04T09:17:10;4.45;;;0.93;;
32323;SDS011;25666;44.350;9.222;2022-11-04T09:19:35;4.78;;;0.75;;
32323;SDS011;25666;44.350;9.222;2022-11-04T09:22:01;1.90;;;0.70;;
32323;SDS011;25666;44.350;9.222;2022-11-04T09:24:26;1.10;;;0.75;;
32323;SDS011;25666;44.350;9.222;2022-11-04T09:26:52;3.15;;;0.77;;
32323;SDS011;25666;44.350;9.222;2022-11-04T09:29:19;3.83;;;1.40;;
32323;SDS011;25666;44.350;9.222;2022-11-04T09:31:44;7.78;;;1.95;;
32323;SDS011;25666;44.350;9.222;2022-11-04T09:34:10;5.93;;;1.58;;
32323;SDS011;25666;44.350;9.222;2022-11-04T09:36:35;9.30;;;1.58;;
32323;SDS011;25666;44.350;9.222;2022-11-04T09:39:01;5.85;;;1.73;;
32323;SDS011;25666;44.350;9.222;2022-11-04T09:41:31;3.10;;;1.50;;
32323;SDS011;25666;44.350;9.222;2022-11-04T09:44:21;9.88;;;1.60;;
32323;SDS011;25666;44.350;9.222;2022-11-04T09:47:06;5.93;;;1.60;;
32323;SDS011;25666;44.350;9.222;2022-11-04T09:49:35;3.20;;;1.60;;
32323;SDS011;25666;44.350;9.222;2022-11-04T09:52:13;9.25;;;2.22;;
32323;SDS011;25666;44.350;9.222;2022-11-04T09:54:53;9.10;;;1.80;;
32323;SDS011;25666;44.350;9.222;2022-11-04T09:57:28;3.92;;;2.00;;
32323;SDS011;25666;44.350;9.222;2022-11-04T09:59:54;7.25;;;2.88;;
32323;SDS011;25666;44.350;9.222;2022-11-04T10:05:10;12.75;;;2.80;;
32323;SDS011;25666;44.350;9.222;2022-11-04T10:08:06;6.93;;;1.67;;
32323;SDS011;25666;44.350;9.222;2022-11-04T10:19:20;1.42;;;0.90;;
32323;SDS011;25666;44.350;9.222;2022-11-04T10:26:56;4.78;;;1.00;;
32323;SDS011;25666;44.350;9.222;2022-11-04T10:29:38;15.00;;;2.60;;
32323;SDS011;25666;44.350;9.222;2022-11-04T10:32:28;12.38;;;2.65;;
32323;SDS011;25666;44.350;9.222;2022-11-04T10:34:58;10.20;;;2.88;;
32323;SDS011;25666;44.350;9.222;2022-11-04T10:37:26;9.38;;;2.53;;
32323;SDS011;25666;44.350;9.222;2022-11-04T10:39:59;5.68;;;2.03;;
32323;SDS011;25666;44.350;9.222;2022-11-04T10:42:36;3.85;;;1.20;;
32323;SDS011;25666;44.350;9.222;2022-11-04T10:45:02;2.40;;;1.63;;
32323;SDS011;25666;44.350;9.222;2022-11-04T10:47:43;8.10;;;1.67;;
32323;SDS011;25666;44.350;9.222;2022-11-04T10:50:23;3.40;;;0.95;;
32323;SDS011;25666;44.350;9.222;2022-11-04T10:53:17;2.13;;;1.10;;
32323;SDS011;25666;44.350;9.222;2022-11-04T10:58:29;2.33;;;1.17;;
32323;SDS011;25666;44.350;9.222;2022-11-04T11:00:58;2.97;;;0.93;;
32323;SDS011;25666;44.350;9.222;2022-11-04T11:03:44;4.13;;;1.10;;
32323;SDS011;25666;44.350;9.222;2022-11-04T11:06:29;3.90;;;1.15;;
32323;SDS011;25666;44.350;9.222;2022-11-04T11:09:00;4.60;;;2.08;;
32323;SDS011;25666;44.350;9.222;2022-11-04T11:11:39;3.90;;;1.23;;
32323;SDS011;25666;44.350;9.222;2022-11-04T11:16:41;2.65;;;1.20;;
32323;SDS011;25666;44.350;9.222;2022-11-04T11:19:17;1.25;;;0.60;;
32323;SDS011;25666;44.350;9.222;2022-11-04T11:21:48;3.50;;;0.70;;
32323;SDS011;25666;44.350;9.222;2022-11-04T11:24:18;1.90;;;0.85;;
32323;SDS011;25666;44.350;9.222;2022-11-04T11:26:46;13.30;;;1.00;;
32323;SDS011;25666;44.350;9.222;2022-11-04T11:29:17;9.00;;;1.67;;
32323;SDS011;25666;44.350;9.222;2022-11-04T11:31:46;2.03;;;0.77;;
32323;SDS011;25666;44.350;9.222;2022-11-04T11:34:14;2.17;;;0.60;;
32323;SDS011;25666;44.350;9.222;2022-11-04T11:36:43;2.60;;;0.57;;
32323;SDS011;25666;44.350;9.222;2022-11-04T11:42:14;3.17;;;0.95;;
32323;SDS011;25666;44.350;9.222;2022-11-04T11:44:58;3.70;;;0.50;;
32323;SDS011;25666;44.350;9.222;2022-11-04T11:52:39;0.80;;;0.60;;
32323;SDS011;25666;44.350;9.222;2022-11-04T11:55:10;3.50;;;0.57;;
32323;SDS011;25666;44.350;9.222;2022-11-04T12:00:28;4.43;;;0.60;;
32323;SDS011;25666;44.350;9.222;2022-11-04T12:05:54;2.28;;;0.65;;
32323;SDS011;25666;44.350;9.222;2022-11-04T12:08:48;1.00;;;0.50;;
32323;SDS011;25666;44.350;9.222;2022-11-04T12:17:27;4.88;;;1.23;;
32323;SDS011;25666;44.350;9.222;2022-11-04T12:22:58;5.93;;;1.08;;
32323;SDS011;25666;44.350;9.222;2022-11-04T12:28:14;2.35;;;1.25;;
32323;SDS011;25666;44.350;9.222;2022-11-04T12:33:46;3.30;;;0.80;;
32323;SDS011;25666;44.350;9.222;2022-11-04T12:39:01;4.35;;;0.82;;
32323;SDS011;25666;44.350;9.222;2022-11-04T12:41:34;4.15;;;0.80;;
32323;SDS011;25666;44.350;9.222;2022-11-04T12:49:32;3.58;;;0.88;;
32323;SDS011;25666;44.350;9.222;2022-11-04T13:01:05;5.35;;;1.35;;
32323;SDS011;25666;44.350;9.222;2022-11-04T13:03:54;7.97;;;1.20;;
32323;SDS011;25666;44.350;9.222;2022-11-04T13:06:41;3.08;;;0.90;;
32323;SDS011;25666;44.350;9.222;2022-11-04T13:12:22;2.63;;;0.77;;
32323;SDS011;25666;44.350;9.222;2022-11-04T13:14:51;11.07;;;1.20;;
32323;SDS011;25666;44.350;9.222;2022-11-04T13:17:30;2.53;;;1.00;;
32323;SDS011;25666;44.350;9.222;2022-11-04T13:19:59;3.80;;;0.98;;
32323;SDS011;25666;44.350;9.222;2022-11-04T13:27:32;3.55;;;0.90;;
32323;SDS011;25666;44.350;9.222;2022-11-04T13:33:04;4.75;;;1.40;;
32323;SDS011;25666;44.350;9.222;2022-11-04T13:38:31;2.42;;;0.90;;
32323;SDS011;25666;44.350;9.222;2022-11-04T13:42:06;3.83;;;1.88;;
32323;SDS011;25666;44.350;9.222;2022-11-04T13:44:38;7.60;;;1.08;;
32323;SDS011;25666;44.350;9.222;2022-11-04T13:47:21;1.88;;;0.80;;
32323;SDS011;25666;44.350;9.222;2022-11-04T13:49:54;1.95;;;0.70;;
32323;SDS011;25666;44.350;9.222;2022-11-04T13:52:20;8.40;;;1.40;;
32323;SDS011;25666;44.350;9.222;2022-11-04T13:54:54;1.27;;;0.85;;
32323;SDS011;25666;44.350;9.222;2022-11-04T13:57:27;3.92;;;1.17;;
32323;SDS011;25666;44.350;9.222;2022-11-04T14:02:37;0.85;;;0.70;;
32323;SDS011;25666;44.350;9.222;2022-11-04T14:08:11;3.97;;;1.67;;
32323;SDS011;25666;44.350;9.222;2022-11-04T14:15:58;2.72;;;0.98;;
32323;SDS011;25666;44.350;9.222;2022-11-04T14:18:34;3.95;;;1.23;;
32323;SDS011;25666;44.350;9.222;2022-11-04T14:21:06;3.80;;;0.83;;
32323;SDS011;25666;44.350;9.222;2022-11-04T14:23:46;4.20;;;1.00;;
32323;SDS011;25666;44.350;9.222;2022-11-04T14:26:18;11.40;;;1.83;;
32323;SDS011;25666;44.350;9.222;2022-11-04T14:28:48;2.78;;;1.38;;
32323;SDS011;25666;44.350;9.222;2022-11-04T14:31:34;2.35;;;0.88;;
32323;SDS011;25666;44.350;9.222;2022-11-04T14:34:04;3.72;;;1.05;;
32323;SDS011;25666;44.350;9.222;2022-11-04T14:36:32;5.95;;;1.80;;
32323;SDS011;25666;44.350;9.222;2022-11-04T14:39:33;4.85;;;1.38;;
32323;SDS011;25666;44.350;9.222;2022-11-04T14:41:56;11.52;;;4.95;;
32323;SDS011;25666;44.350;9.222;2022-11-04T14:44:28;6.10;;;2.35;;
32323;SDS011;25666;44.350;9.222;2022-11-04T14:52:15;11.23;;;1.75;;
32323;SDS011;25666;44.350;9.222;2022-11-04T14:54:45;10.60;;;1.30;;
32323;SDS011;25666;44.350;9.222;2022-11-04T14:57:18;4.35;;;1.67;;
32323;SDS011;25666;44.350;9.222;2022-11-04T14:59:47;6.53;;;1.95;;
32323;SDS011;25666;44.350;9.222;2022-11-04T15:02:21;7.50;;;1.75;;
32323;SDS011;25666;44.350;9.222;2022-11-04T15:04:57;8.48;;;1.90;;
32323;SDS011;25666;44.350;9.222;2022-11-04T15:07:35;10.65;;;1.88;;
32323;SDS011;25666;44.350;9.222;2022-11-04T15:10:23;12.90;;;2.10;;
32323;SDS011;25666;44.350;9.222;2022-11-04T15:12:52;10.73;;;1.50;;
32323;SDS011;25666;44.350;9.222;2022-11-04T15:17:53;7.60;;;1.98;;
32323;SDS011;25666;44.350;9.222;2022-11-04T15:20:29;10.27;;;1.65;;
32323;SDS011;25666;44.350;9.222;2022-11-04T15:22:59;11.30;;;1.98;;
32323;SDS011;25666;44.350;9.222;2022-11-04T15:25:27;6.45;;;1.67;;
32323;SDS011;25666;44.350;9.222;2022-11-04T15:27:53;13.88;;;1.77;;
32323;SDS011;25666;44.350;9.222;2022-11-04T15:30:24;5.97;;;1.92;;
32323;SDS011;25666;44.350;9.222;2022-11-04T15:32:55;7.72;;;1.45;;
32323;SDS011;25666;44.350;9.222;2022-11-04T15:35:28;8.40;;;1.42;;
32323;SDS011;25666;44.350;9.222;2022-11-04T15:37:56;3.78;;;1.40;;
32323;SDS011;25666;44.350;9.222;2022-11-04T15:40:23;12.10;;;2.42;;
32323;SDS011;25666;44.350;9.222;2022-11-04T15:42:51;10.90;;;1.40;;
32323;SDS011;25666;44.350;9.222;2022-11-04T15:51:02;7.70;;;1.02;;
32323;SDS011;25666;44.350;9.222;2022-11-04T15:56:27;8.60;;;1.90;;
32323;SDS011;25666;44.350;9.222;2022-11-04T15:58:56;10.18;;;1.45;;
32323;SDS011;25666;44.350;9.222;2022-11-04T16:01:23;8.23;;;2.10;;
32323;SDS011;25666;44.350;9.222;2022-11-04T16:03:53;7.80;;;2.13;;
32323;SDS011;25666;44.350;9.222;2022-11-04T16:06:33;4.80;;;1.70;;
32323;SDS011;25666;44.350;9.222;2022-11-04T16:09:04;8.70;;;2.30;;
32323;SDS011;25666;44.350;9.222;2022-11-04T16:11:33;9.70;;;2.15;;
32323;SDS011;25666;44.350;9.222;2022-11-04T16:16:59;11.40;;;1.45;;
32323;SDS011;25666;44.350;9.222;2022-11-04T16:19:26;8.02;;;1.42;;
32323;SDS011;25666;44.350;9.222;2022-11-04T16:22:12;7.32;;;1.50;;
32323;SDS011;25666;44.350;9.222;2022-11-04T16:24:44;6.43;;;1.77;;
32323;SDS011;25666;44.350;9.222;2022-11-04T16:27:13;2.80;;;1.70;;
32323;SDS011;25666;44.350;9.222;2022-11-04T16:29:43;5.95;;;1.67;;
32323;SDS011;25666;44.350;9.222;2022-11-04T16:32:27;8.88;;;2.00;;
32323;SDS011;25666;44.350;9.222;2022-11-04T16:34:56;13.57;;;2.33;;
32323;SDS011;25666;44.350;9.222;2022-11-04T16:37:25;18.38;;;2.10;;
32323;SDS011;25666;44.350;9.222;2022-11-04T16:39:51;10.43;;;1.48;;
32323;SDS011;25666;44.350;9.222;2022-11-04T16:42:17;6.65;;;1.60;;
32323;SDS011;25666;44.350;9.222;2022-11-04T16:44:46;9.60;;;2.28;;
32323;SDS011;25666;44.350;9.222;2022-11-04T16:47:13;3.75;;;1.45;;
32323;SDS011;25666;44.350;9.222;2022-11-04T16:49:39;8.43;;;1.70;;
32323;SDS011;25666;44.350;9.222;2022-11-04T16:52:05;6.20;;;1.20;;
32323;SDS011;25666;44.350;9.222;2022-11-04T16:54:37;3.28;;;1.42;;
32323;SDS011;25666;44.350;9.222;2022-11-04T16:57:02;7.68;;;2.03;;
32323;SDS011;25666;44.350;9.222;2022-11-04T16:59:31;11.02;;;1.63;;
32323;SDS011;25666;44.350;9.222;2022-11-04T17:01:56;8.10;;;2.00;;
32323;SDS011;25666;44.350;9.222;2022-11-04T17:04:22;6.55;;;2.03;;
32323;SDS011;25666;44.350;9.222;2022-11-04T17:06:47;10.93;;;1.95;;
32323;SDS011;25666;44.350;9.222;2022-11-04T17:09:18;9.07;;;2.15;;
32323;SDS011;25666;44.350;9.222;2022-11-04T17:11:45;7.65;;;1.83;;
32323;SDS011;25666;44.350;9.222;2022-11-04T17:14:11;8.25;;;1.60;;
32323;SDS011;25666;44.350;9.222;2022-11-04T17:16:37;5.55;;;1.75;;
32323;SDS011;25666;44.350;9.222;2022-11-04T17:19:02;10.75;;;1.90;;
32323;SDS011;25666;44.350;9.222;2022-11-04T17:21:28;11.82;;;1.85;;
32323;SDS011;25666;44.350;9.222;2022-11-04T17:23:53;10.60;;;1.65;;